Time;durP1;ratioP1;P1;durP2;ratioP2;P2;SDS_P1;SDS_P2;PMS_P1;PMS_P2;Temp;Humidity;BMP_temperature;BMP_pressure;BME280_temperature;BME280_humidity;BME280_pressure;Samples;Min_cycle;Max_cycle;Signal;HPM_P1;HPM_P2
2023/04/12 08:35:59;;;;;;;1.77;0.80;;;;;;;17.55;40.29;97802.44;6157209;23;20246;-88
2023/04/12 08:38:25;;;;;;;3.67;1.17;;;;;;;17.46;40.17;97808.63;6156061;23;20159;-87
2023/04/12 08:40:50;;;;;;;5.33;1.77;;;;;;;17.70;40.62;97802.66;6156779;23;20148;-86
2023/04/12 08:43:20;;;;;;;2.30;1.20;;;;;;;17.67;40.02;97792.38;6157115;23;20158;-87
2023/04/12 08:46:00;;;;;;;1.90;1.00;;;;;;;17.53;40.77;97800.94;6131292;23;20136;-90
2023/04/12 08:48:28;;;;;;;5.33;1.10;;;;;;;17.38;38.90;97790.03;6131720;23;20167;-87
2023/04/12 08:50:59;;;;;;;2.53;0.90;;;;;;;17.30;39.23;97803.22;6129535;23;20155;-87
2023/04/12 08:53:28;;;;;;;4.80;1.37;;;;;;;17.29;39.91;97800.72;6157060;23;20181;-90
2023/04/12 08:55:56;;;;;;;2.57;1.27;;;;;;;17.49;39.23;97802.19;6131238;23;20184;-87
2023/04/12 08:58:23;;;;;;;2.57;1.07;;;;;;;17.47;39.22;97794.41;6131172;23;20166;-88
2023/04/12 09:00:48;;;;;;;1.90;1.00;;;;;;;17.34;39.14;97807.22;6156645;23;20161;-88
2023/04/12 09:03:14;;;;;;;7.13;0.80;;;;;;;17.39;38.99;97812.06;6156750;23;20226;-87
2023/04/12 09:05:39;;;;;;;1.33;0.60;;;;;;;17.64;38.60;97798.00;6130854;23;20151;-89
2023/04/12 09:08:05;;;;;;;1.47;0.50;;;;;;;17.63;38.94;97799.84;6157371;23;20151;-89
2023/04/12 09:10:33;;;;;;;1.80;0.57;;;;;;;17.72;38.20;97798.88;6157268;23;20285;-88
2023/04/12 09:13:00;;;;;;;1.83;0.47;;;;;;;17.68;37.44;97792.25;6156926;23;20166;-90
2023/04/12 09:15:25;;;;;;;1.83;0.63;;;;;;;17.77;37.22;97785.97;6131109;23;20495;-88
2023/04/12 09:18:03;;;;;;;1.70;0.60;;;;;;;18.24;38.67;97783.66;6156834;23;20157;-89
2023/04/12 09:20:29;;;;;;;0.97;0.50;;;;;;;18.55;36.26;97781.31;6157149;23;20154;-89
2023/04/12 09:22:55;;;;;;;1.17;0.40;;;;;;;18.53;34.40;97770.00;6157542;23;20500;-88
2023/04/12 09:25:44;;;;;;;1.00;0.50;;;;;;;18.50;35.25;97778.28;6156775;23;20151;-85
2023/04/12 09:28:26;;;;;;;2.80;0.80;;;;;;;18.66;36.30;97769.53;6157481;23;20203;-87
2023/04/12 09:30:53;;;;;;;1.77;0.60;;;;;;;18.78;35.19;97761.09;6130029;23;20157;-89
2023/04/12 09:33:32;;;;;;;2.27;0.60;;;;;;;18.95;35.70;97761.91;6156315;23;20155;-89
2023/04/12 09:36:02;;;;;;;2.83;0.50;;;;;;;19.41;35.69;97750.63;6130656;23;20284;-89
2023/04/12 09:38:29;;;;;;;1.10;0.33;;;;;;;19.32;35.84;97753.41;6130934;23;20462;-89
2023/04/12 09:40:54;;;;;;;1.13;0.47;;;;;;;19.73;35.30;97741.72;6156663;23;20151;-88
2023/04/12 09:43:35;;;;;;;4.30;1.20;;;;;;;20.25;35.44;97746.50;6156680;23;20151;-89
2023/04/12 09:46:10;;;;;;;1.47;0.50;;;;;;;20.05;34.28;97741.56;6130951;23;20167;-89
2023/04/12 09:48:37;;;;;;;1.77;0.70;;;;;;;19.69;34.12;97751.03;6156676;23;20604;-87
2023/04/12 09:51:03;;;;;;;6.03;0.70;;;;;;;19.45;33.68;97759.06;6156591;23;20151;-88
2023/04/12 09:56:55;;;;;;;1.63;0.70;;;;;;;18.92;33.59;97748.97;6157012;23;20158;-88
2023/04/12 09:59:25;;;;;;;1.67;0.60;;;;;;;18.90;33.62;97740.34;6130769;23;20158;-87
2023/04/12 10:01:52;;;;;;;2.57;0.67;;;;;;;18.86;33.59;97753.13;6156832;23;20238;-89
2023/04/12 10:04:18;;;;;;;1.17;0.67;;;;;;;19.07;34.29;97746.47;6157078;23;20217;-94
2023/04/12 10:06:45;;;;;;;2.70;0.60;;;;;;;19.18;33.97;97752.25;6156728;23;20233;-94
2023/04/12 10:09:11;;;;;;;3.70;0.93;;;;;;;19.19;33.96;97747.78;6130670;23;20243;-88
2023/04/12 10:11:41;;;;;;;2.53;1.17;;;;;;;19.19;35.22;97734.50;6130566;23;20576;-88
2023/04/12 10:14:08;;;;;;;3.87;0.80;;;;;;;19.18;34.47;97748.81;6130423;23;20548;-87
2023/04/12 10:16:40;;;;;;;4.80;1.37;;;;;;;19.08;34.75;97745.50;6130620;23;20163;-87
2023/04/12 10:19:06;;;;;;;2.67;1.30;;;;;;;18.96;36.26;97758.28;6156386;23;20166;-86
2023/04/12 10:21:32;;;;;;;2.90;1.40;;;;;;;19.05;36.09;97751.13;6156316;23;20162;-87
2023/04/12 10:24:00;;;;;;;7.03;1.60;;;;;;;19.42;35.94;97759.41;6156647;23;20475;-94
2023/04/12 10:26:26;;;;;;;3.70;1.40;;;;;;;19.59;34.80;97767.19;6156567;23;20178;-87
2023/04/12 10:29:35;;;;;;;2.93;1.27;;;;;;;19.53;34.68;97753.72;6156350;23;20151;-89
2023/04/12 10:32:21;;;;;;;3.93;1.23;;;;;;;19.32;34.53;97761.38;6145964;23;20154;-94
2023/04/12 10:34:55;;;;;;;2.90;1.23;;;;;;;19.36;35.84;97755.59;6156487;23;20238;-93
2023/04/12 10:37:21;;;;;;;3.00;1.27;;;;;;;19.49;34.61;97750.59;6127580;23;20609;-92
2023/04/12 10:39:53;;;;;;;1.80;0.80;;;;;;;19.17;35.16;97765.72;6130101;23;20579;-93
2023/04/12 10:42:23;;;;;;;3.43;1.43;;;;;;;19.27;36.34;97769.03;6130691;23;20155;-92
2023/04/12 10:45:27;;;;;;;4.77;1.60;;;;;;;19.16;36.46;97762.22;6155988;23;20795;-94
2023/04/12 10:47:55;;;;;;;3.40;1.57;;;;;;;18.97;36.74;97773.22;6130365;23;20155;-88
2023/04/12 10:50:29;;;;;;;3.27;1.10;;;;;;;19.23;36.34;97762.41;6156758;23;20214;-87
2023/04/12 10:53:23;;;;;;;2.67;1.40;;;;;;;19.30;38.25;97766.03;6156417;23;20190;-85
2023/04/12 10:55:49;;;;;;;3.00;1.30;;;;;;;19.02;37.29;97750.44;6152563;23;20190;-87
2023/04/12 10:59:00;;;;;;;2.80;1.50;;;;;;;19.20;36.13;97755.59;6156078;23;20151;-86
2023/04/12 11:01:28;;;;;;;2.57;1.20;;;;;;;19.62;36.60;97755.38;6126016;23;20155;-87
2023/04/12 11:04:20;;;;;;;2.80;1.17;;;;;;;19.94;36.63;97749.13;6130083;23;20169;-87
2023/04/12 11:06:51;;;;;;;2.83;1.43;;;;;;;20.15;34.89;97752.81;6156920;23;20136;-94
2023/04/12 11:09:56;;;;;;;2.47;1.30;;;;;;;20.08;35.06;97737.75;6156600;23;20213;-94
2023/04/12 11:12:30;;;;;;;4.13;1.10;;;;;;;19.92;34.98;97751.94;6130712;23;20150;-94
2023/04/12 11:15:40;;;;;;;6.23;1.27;;;;;;;19.78;34.16;97760.66;6130328;23;20179;-93
2023/04/12 11:18:09;;;;;;;2.10;1.13;;;;;;;19.49;34.18;97768.38;6013581;23;20162;-95
2023/04/12 11:20:40;;;;;;;1.73;0.90;;;;;;;19.35;35.17;97784.97;6014144;23;20169;-93
2023/04/12 11:23:06;;;;;;;3.23;1.43;;;;;;;18.67;38.08;97790.59;6109165;23;20166;-93
2023/04/12 11:25:32;;;;;;;2.43;1.30;;;;;;;18.32;44.01;97801.44;6130323;23;20151;-95
2023/04/12 11:28:06;;;;;;;2.60;1.80;;;;;;;18.49;41.78;97776.66;6130386;23;20158;-95
2023/04/12 11:30:32;;;;;;;3.00;1.60;;;;;;;18.62;45.05;97769.03;6129971;23;20144;-92
2023/04/12 11:32:57;;;;;;;5.50;1.77;;;;;;;18.63;44.79;97762.72;6155405;23;20147;-93
2023/04/12 11:35:26;;;;;;;6.70;2.20;;;;;;;18.76;46.14;97754.28;6129988;23;20198;-94
2023/04/12 11:37:53;;;;;;;5.53;2.17;;;;;;;18.80;45.29;97739.69;6129995;23;20162;-93
2023/04/12 11:40:21;;;;;;;4.30;1.80;;;;;;;18.65;45.22;97742.19;6130160;23;20249;-93
2023/04/12 11:42:47;;;;;;;3.73;1.50;;;;;;;18.33;44.37;97752.69;6153407;23;20154;-92
2023/04/12 11:45:20;;;;;;;4.43;1.30;;;;;;;17.74;42.36;97754.47;6129818;23;20577;-93
2023/04/12 11:47:50;;;;;;;2.10;0.70;;;;;;;17.11;41.83;97766.34;6155693;23;20136;-94
2023/04/12 11:50:28;;;;;;;1.53;0.73;;;;;;;16.65;43.27;97759.50;6129552;23;20155;-94
2023/04/12 11:53:07;;;;;;;2.57;0.87;;;;;;;16.43;42.63;97742.25;6127818;23;20551;-94
2023/04/12 11:55:35;;;;;;;1.50;0.70;;;;;;;16.50;39.73;97738.03;6127592;23;20700;-93
2023/04/12 11:58:01;;;;;;;2.80;0.63;;;;;;;16.84;38.50;97753.22;6129140;23;20154;-93
2023/04/12 12:00:28;;;;;;;0.70;0.33;;;;;;;16.83;38.18;97762.97;6153882;23;20151;-93
2023/04/12 12:02:56;;;;;;;2.63;0.70;;;;;;;16.76;41.99;97763.75;6153790;23;20151;-93
2023/04/12 12:05:26;;;;;;;2.00;0.77;;;;;;;16.18;45.00;97760.66;6128661;23;20165;-91
2023/04/12 12:07:53;;;;;;;1.40;0.60;;;;;;;15.86;43.21;97745.25;6128001;23;20232;-92
2023/04/12 12:10:19;;;;;;;0.50;0.40;;;;;;;15.91;42.66;97753.56;6128529;23;20517;-93
2023/04/12 12:12:45;;;;;;;1.77;0.90;;;;;;;16.48;44.15;97757.69;6154894;23;20162;-93
2023/04/12 12:20:54;;;;;;;2.27;0.70;;;;;;;17.05;43.02;97745.78;6065236;23;20220;-92
2023/04/12 12:23:27;;;;;;;1.83;0.70;;;;;;;17.27;44.21;97739.94;6153414;23;20235;-93
2023/04/12 12:25:52;;;;;;;2.60;0.90;;;;;;;17.43;42.96;97742.69;6129370;23;20156;-92
2023/04/12 12:47:14;;;;;;;2.07;0.80;;;;;;;19.36;36.16;97713.06;5796153;24;20179;-93
2023/04/12 12:50:14;;;;;;;2.10;0.97;;;;;;;19.57;35.97;97710.69;5838750;24;20160;-95
2023/04/12 12:52:40;;;;;;;1.27;0.50;;;;;;;19.99;37.06;97707.72;6006765;23;20166;-93
2023/04/12 12:55:06;;;;;;;1.67;0.67;;;;;;;20.26;35.39;97697.63;6008613;23;21019;-93
2023/04/12 12:57:38;;;;;;;1.70;0.77;;;;;;;20.29;34.00;97699.91;6008885;23;20159;-94
2023/04/12 13:00:11;;;;;;;1.40;0.63;;;;;;;20.32;33.30;97688.91;6100557;23;20148;-94
2023/04/12 13:05:43;;;;;;;1.90;0.60;;;;;;;20.76;31.45;97688.06;6106006;23;20600;-95
2023/04/12 13:08:24;;;;;;;1.00;0.50;;;;;;;20.81;31.91;97692.84;6101515;23;20156;-86
2023/04/12 13:10:55;;;;;;;1.77;0.70;;;;;;;20.65;28.77;97683.16;6101378;23;20156;-89
2023/04/12 13:13:20;;;;;;;1.63;0.70;;;;;;;20.84;29.85;97684.50;6126588;23;20203;-89
2023/04/12 13:15:46;;;;;;;5.20;0.80;;;;;;;20.62;31.22;97696.03;6126253;23;20175;-89
2023/04/12 13:18:15;;;;;;;2.27;1.10;;;;;;;20.45;29.31;97699.78;6101140;23;20160;-87
2023/04/12 13:20:41;;;;;;;2.83;0.77;;;;;;;20.62;30.17;97696.03;6126107;23;20157;-88
2023/04/12 13:23:08;;;;;;;1.27;0.67;;;;;;;20.87;30.57;97693.97;6126763;23;20485;-87
2023/04/12 13:25:35;;;;;;;4.53;1.00;;;;;;;21.04;30.57;97685.63;6126942;23;20132;-87
2023/04/12 13:28:02;;;;;;;1.60;0.50;;;;;;;21.09;28.56;97688.66;6127800;23;20148;-88
2023/04/12 13:30:27;;;;;;;1.73;0.70;;;;;;;21.15;28.78;97690.56;6100536;23;20164;-89
2023/04/12 13:33:37;;;;;;;3.97;0.80;;;;;;;21.19;29.66;97693.69;6100821;23;20222;-87
2023/04/12 13:36:53;;;;;;;0.77;0.30;;;;;;;21.12;28.70;97698.09;6132547;23;20204;-88
2023/04/12 13:39:35;;;;;;;1.27;0.50;;;;;;;20.86;29.44;97703.78;6127671;23;20211;-87
2023/04/12 13:42:21;;;;;;;2.07;0.50;;;;;;;20.68;28.69;97711.25;6126750;23;20159;-88
2023/04/12 13:44:48;;;;;;;2.57;1.13;;;;;;;20.89;29.72;97711.41;6125905;23;20163;-87
2023/04/12 13:47:37;;;;;;;0.87;0.50;;;;;;;20.89;28.92;97708.75;6101014;23;20162;-87
2023/04/12 13:50:27;;;;;;;1.03;0.43;;;;;;;21.14;27.71;97707.56;6127747;23;20148;-89
2023/04/12 13:53:03;;;;;;;1.30;0.57;;;;;;;21.28;27.73;97704.09;6125994;23;20219;-88
2023/04/12 13:55:32;;;;;;;1.77;0.77;;;;;;;21.02;26.00;97716.97;6127464;23;20175;-90
2023/04/12 13:58:50;;;;;;;0.77;0.43;;;;;;;20.54;26.08;97710.22;6126914;23;20230;-87
2023/04/12 14:01:17;;;;;;;0.70;0.33;;;;;;;20.64;28.54;97717.97;6098171;23;20591;-87
2023/04/12 14:03:44;;;;;;;0.60;0.40;;;;;;;20.83;25.92;97725.47;6126822;23;20529;-88
2023/04/12 14:06:11;;;;;;;0.70;0.40;;;;;;;20.78;25.81;97725.16;6127139;23;20515;-89
2023/04/12 14:08:37;;;;;;;2.37;0.80;;;;;;;20.95;25.67;97724.03;6101286;23;20179;-88
2023/04/12 14:11:04;;;;;;;1.67;0.40;;;;;;;21.21;25.65;97724.47;6126664;23;20231;-88
2023/04/12 14:13:31;;;;;;;2.57;0.67;;;;;;;20.82;25.54;97729.13;6126889;23;20180;-89
2023/04/12 14:15:56;;;;;;;2.67;0.47;;;;;;;20.91;25.98;97749.34;6126996;23;20513;-87
2023/04/12 14:18:23;;;;;;;1.13;0.60;;;;;;;21.17;23.96;97747.16;6101131;23;20670;-87
2023/04/12 14:20:54;;;;;;;1.50;0.47;;;;;;;20.84;24.28;97753.75;6101329;23;20301;-88
2023/04/12 14:23:22;;;;;;;1.27;0.40;;;;;;;21.17;25.13;97749.81;6101287;23;20155;-87
2023/04/12 14:25:48;;;;;;;1.80;0.57;;;;;;;21.40;24.36;97750.63;6125896;23;20167;-88
2023/04/12 14:28:16;;;;;;;1.33;0.37;;;;;;;21.20;23.79;97765.44;6126249;23;20303;-87
2023/04/12 14:30:43;;;;;;;0.90;0.30;;;;;;;20.96;23.06;97765.66;6126917;23;20279;-86
2023/04/12 14:33:09;;;;;;;0.60;0.27;;;;;;;20.96;24.19;97767.47;6126845;23;20158;-86
2023/04/12 14:35:35;;;;;;;1.60;0.53;;;;;;;20.94;22.83;97775.63;6126226;23;20195;-88
2023/04/12 14:38:01;;;;;;;5.40;0.50;;;;;;;21.07;23.68;97775.91;6125780;23;20167;-87
2023/04/12 14:40:26;;;;;;;2.03;0.43;;;;;;;21.20;23.77;97777.97;6123420;23;20187;-87
2023/04/12 14:42:54;;;;;;;2.20;0.40;;;;;;;20.96;22.95;97778.97;6099006;23;20152;-87
2023/04/12 14:45:19;;;;;;;0.43;0.30;;;;;;;21.14;23.08;97781.34;6123844;23;20152;-86
2023/04/12 14:47:46;;;;;;;2.50;0.40;;;;;;;21.31;23.06;97778.34;6124308;23;20156;-87
2023/04/12 14:50:13;;;;;;;0.57;0.30;;;;;;;21.09;23.33;97784.56;6126003;23;20148;-88
2023/04/12 14:52:40;;;;;;;0.60;0.30;;;;;;;20.92;23.05;97787.47;6124285;23;20152;-89
2023/04/12 14:55:07;;;;;;;1.03;0.33;;;;;;;21.12;24.13;97789.50;6124029;23;20180;-86
2023/04/12 14:57:35;;;;;;;1.97;0.40;;;;;;;21.52;23.79;97795.47;6124446;23;20239;-93
2023/04/12 15:00:03;;;;;;;1.07;0.30;;;;;;;21.34;22.97;97806.47;6101181;23;20222;-94
2023/04/12 15:02:28;;;;;;;4.07;1.13;;;;;;;21.26;23.30;97803.88;6127087;23;20602;-93
2023/04/12 15:04:54;;;;;;;2.13;0.93;;;;;;;21.30;22.36;97803.34;6100283;23;20159;-94
2023/04/12 15:07:19;;;;;;;1.17;0.30;;;;;;;21.38;22.76;97800.59;6101258;23;20224;-92
2023/04/12 15:09:46;;;;;;;3.33;0.73;;;;;;;21.52;23.56;97806.13;6101448;23;20254;-94
2023/04/12 15:12:12;;;;;;;1.23;0.40;;;;;;;21.46;23.28;97806.88;6127431;23;20246;-94
2023/04/12 15:14:39;;;;;;;3.00;0.43;;;;;;;21.38;23.82;97808.59;6101292;23;20515;-94
2023/04/12 15:17:07;;;;;;;2.30;0.50;;;;;;;21.38;23.12;97813.94;6101160;23;20242;-94
2023/04/12 15:19:33;;;;;;;2.30;0.50;;;;;;;21.02;22.35;97820.88;6101129;23;20186;-94
2023/04/12 15:22:00;;;;;;;1.27;0.50;;;;;;;21.14;22.50;97826.66;6101178;23;20152;-94
2023/04/12 15:24:29;;;;;;;0.60;0.30;;;;;;;21.15;23.14;97830.94;6101204;23;20288;-94
2023/04/12 15:26:56;;;;;;;1.97;0.40;;;;;;;21.27;22.55;97824.22;6125752;23;20152;-93
2023/04/12 15:29:23;;;;;;;1.50;0.57;;;;;;;21.14;22.89;97830.16;6100284;23;20638;-93
2023/04/12 15:31:50;;;;;;;1.47;0.50;;;;;;;20.91;23.19;97826.59;6126050;23;20147;-93
2023/04/12 15:34:16;;;;;;;2.63;0.70;;;;;;;20.61;26.74;97833.63;6100069;23;20183;-94
2023/04/12 15:36:44;;;;;;;1.13;0.43;;;;;;;20.57;28.43;97836.81;6126464;23;20206;-94
2023/04/12 15:39:13;;;;;;;1.00;0.50;;;;;;;20.67;28.56;97829.44;6101128;23;20164;-93
2023/04/12 15:41:41;;;;;;;1.83;0.77;;;;;;;20.74;29.06;97833.06;6126531;23;20227;-94
2023/04/12 15:44:08;;;;;;;4.00;1.20;;;;;;;20.81;29.49;97839.31;6100431;23;20164;-93
2023/04/12 15:46:35;;;;;;;4.60;0.70;;;;;;;20.86;29.66;97846.81;6100956;23;20183;-93
2023/04/12 15:49:03;;;;;;;8.03;1.13;;;;;;;20.80;30.24;97851.00;6126971;23;20581;-94
2023/04/12 15:51:28;;;;;;;3.33;0.73;;;;;;;20.52;30.24;97849.84;6126216;23;20156;-93
2023/04/12 15:53:55;;;;;;;0.80;0.60;;;;;;;20.55;30.41;97847.63;6100744;23;20461;-93
2023/04/12 15:56:25;;;;;;;1.97;0.80;;;;;;;20.74;30.68;97854.34;6126550;23;20214;-92
2023/04/12 15:58:56;;;;;;;2.00;0.80;;;;;;;20.88;31.07;97860.78;6125357;23;20156;-92
2023/04/12 16:01:22;;;;;;;5.90;1.07;;;;;;;20.90;30.97;97862.25;6101660;23;20152;-93
2023/04/12 16:03:48;;;;;;;5.13;0.70;;;;;;;20.67;30.76;97864.06;6126477;23;20250;-93
2023/04/12 16:06:19;;;;;;;0.70;0.60;;;;;;;20.30;30.44;97867.38;6100448;23;20588;-93
2023/04/12 16:08:50;;;;;;;1.40;0.70;;;;;;;20.26;30.73;97871.38;6102346;23;20188;-94
2023/04/12 16:11:19;;;;;;;4.30;0.80;;;;;;;20.01;31.25;97880.41;6100780;23;20147;-93
2023/04/12 16:13:46;;;;;;;2.77;0.90;;;;;;;20.01;31.36;97878.59;6100862;23;20169;-94
2023/04/12 16:16:12;;;;;;;1.37;0.73;;;;;;;19.99;31.69;97874.44;6101287;23;20187;-93
2023/04/12 16:18:40;;;;;;;6.10;1.00;;;;;;;19.88;32.28;97880.09;6100820;23;20163;-93
2023/04/12 16:21:07;;;;;;;1.27;0.60;;;;;;;19.84;31.92;97874.28;6076621;23;20234;-93
2023/04/12 16:23:34;;;;;;;3.17;0.73;;;;;;;19.83;32.61;97877.13;6126336;23;20151;-92
2023/04/12 16:26:01;;;;;;;1.87;0.73;;;;;;;19.89;32.09;97882.59;6125983;23;20229;-93
2023/04/12 16:28:28;;;;;;;7.73;0.83;;;;;;;19.82;32.31;97894.06;6126377;23;20152;-92
2023/04/12 16:30:55;;;;;;;2.00;1.07;;;;;;;19.81;32.24;97881.78;6100903;23;20662;-91
2023/04/12 16:33:21;;;;;;;1.30;0.70;;;;;;;19.73;32.45;97890.63;6100617;23;20602;-92
2023/04/12 16:35:47;;;;;;;2.60;1.00;;;;;;;19.59;32.55;97899.25;6109601;23;20273;-92
2023/04/12 16:38:13;;;;;;;1.50;0.80;;;;;;;19.57;32.71;97901.25;6155095;23;20206;-92
2023/04/12 16:40:40;;;;;;;2.17;1.07;;;;;;;19.52;33.36;97908.91;6129894;23;20245;-92
2023/04/12 16:43:07;;;;;;;2.23;0.93;;;;;;;19.50;33.23;97906.38;6131493;23;20267;-91
2023/04/12 16:45:34;;;;;;;1.80;0.83;;;;;;;19.45;33.79;97899.91;6157256;23;20555;-91
2023/04/12 16:47:59;;;;;;;3.20;0.73;;;;;;;19.48;33.12;97907.56;6157126;23;20176;-91
2023/04/12 16:50:27;;;;;;;1.30;0.63;;;;;;;19.36;33.70;97920.31;6156982;23;20562;-91
2023/04/12 16:53:07;;;;;;;3.23;1.30;;;;;;;19.22;33.71;97914.81;6128544;23;20163;-91
2023/04/12 16:55:47;;;;;;;8.53;1.07;;;;;;;19.18;33.92;97924.13;6156912;23;20167;-91
2023/04/12 16:58:14;;;;;;;5.80;1.37;;;;;;;19.18;34.00;97926.78;6157086;23;20141;-91
2023/04/12 17:00:42;;;;;;;3.30;1.03;;;;;;;18.98;34.69;97920.91;6157522;23;20155;-91
2023/04/12 17:03:08;;;;;;;4.47;1.17;;;;;;;18.78;35.32;97928.34;6131457;23;20221;-91
2023/04/12 17:05:35;;;;;;;9.80;1.47;;;;;;;18.66;35.73;97934.09;6156916;23;20147;-92
2023/04/12 17:08:04;;;;;;;4.90;1.30;;;;;;;18.41;36.65;97933.13;6131468;23;20166;-91
2023/04/12 17:10:32;;;;;;;8.00;1.70;;;;;;;18.16;37.74;97945.41;6130869;23;20176;-91
2023/04/12 17:13:00;;;;;;;5.27;1.47;;;;;;;18.01;37.66;97947.00;6131334;23;20185;-91
2023/04/12 17:15:27;;;;;;;5.27;1.80;;;;;;;17.99;37.08;97953.44;6157232;23;20175;-90
2023/04/12 17:18:05;;;;;;;4.00;1.57;;;;;;;17.83;38.02;97954.16;6130776;23;20151;-91
2023/04/12 17:20:31;;;;;;;3.13;1.40;;;;;;;17.43;38.36;97962.56;6130851;23;20508;-91
2023/04/12 17:22:57;;;;;;;3.83;1.60;;;;;;;17.18;38.96;97965.97;6129168;23;20157;-91
2023/04/12 17:25:24;;;;;;;3.97;1.27;;;;;;;17.19;38.69;97967.63;6130156;23;20147;-90
2023/04/12 17:27:50;;;;;;;4.00;1.30;;;;;;;17.16;39.26;97971.41;6156021;23;20157;-91
2023/04/12 17:30:16;;;;;;;5.13;1.57;;;;;;;17.05;39.16;97973.44;6129898;23;20165;-91
2023/04/12 17:32:46;;;;;;;5.57;2.13;;;;;;;16.80;39.68;97977.63;6156209;23;20152;-90
2023/04/12 17:35:13;;;;;;;3.37;1.20;;;;;;;16.74;39.91;97983.53;6153372;23;20171;-90
2023/04/12 17:37:41;;;;;;;2.23;0.93;;;;;;;16.66;39.63;97995.81;6100588;23;20583;-91
2023/04/12 17:40:09;;;;;;;5.30;1.17;;;;;;;16.64;39.75;97992.50;6101077;23;20182;-91
2023/04/12 17:42:35;;;;;;;2.83;1.07;;;;;;;16.58;39.31;98005.31;6126638;23;20148;-91
2023/04/12 17:45:01;;;;;;;2.07;0.83;;;;;;;16.56;39.62;98009.09;6126111;23;20218;-91
2023/04/12 17:47:26;;;;;;;4.40;0.80;;;;;;;16.36;40.76;98013.56;6100652;23;20155;-90
2023/04/12 17:49:51;;;;;;;1.27;0.50;;;;;;;16.17;41.31;98018.91;6100712;23;20156;-91
2023/04/12 17:52:17;;;;;;;6.37;0.87;;;;;;;16.03;41.70;98027.28;6100408;23;20169;-91
2023/04/12 17:54:42;;;;;;;2.33;0.80;;;;;;;15.88;41.85;98031.31;6100449;23;20619;-91
2023/04/12 17:57:08;;;;;;;11.53;1.90;;;;;;;15.76;41.95;98029.81;6101189;23;20168;-91
2023/04/12 17:59:33;;;;;;;11.13;2.93;;;;;;;15.79;41.89;98027.72;6100592;23;20230;-91
2023/04/12 18:02:00;;;;;;;56.43;14.67;;;;;;;15.75;41.87;98036.88;6100582;23;20359;-92
2023/04/12 18:04:27;;;;;;;11.53;4.40;;;;;;;15.65;42.38;98035.22;6126382;23;20474;-91
2023/04/12 18:06:53;;;;;;;13.10;4.50;;;;;;;15.58;42.42;98042.88;6100718;23;20186;-91
2023/04/12 18:09:18;;;;;;;18.23;5.67;;;;;;;15.53;42.64;98046.91;6126512;23;20514;-92
2023/04/12 18:11:44;;;;;;;12.20;4.00;;;;;;;15.41;43.20;98042.69;6100665;23;20595;-92
2023/04/12 18:14:11;;;;;;;11.90;4.40;;;;;;;15.27;43.27;98050.03;6100570;23;20173;-91
2023/04/12 18:16:38;;;;;;;15.07;6.03;;;;;;;15.38;42.98;98052.53;6099469;23;20614;-91
2023/04/12 18:19:06;;;;;;;15.00;5.70;;;;;;;15.33;43.25;98060.03;6127053;23;20584;-91
2023/04/12 18:21:33;;;;;;;12.73;5.47;;;;;;;15.23;43.35;98066.28;6126726;23;20594;-92
2023/04/12 18:24:00;;;;;;;18.13;7.13;;;;;;;15.19;43.85;98068.38;6122840;23;20390;-92
2023/04/12 18:26:26;;;;;;;15.53;6.93;;;;;;;15.26;43.74;98077.41;6126481;23;20155;-92
2023/04/12 18:28:52;;;;;;;14.97;5.80;;;;;;;15.16;44.21;98081.81;6126655;23;20151;-91
2023/04/12 18:31:17;;;;;;;17.63;6.43;;;;;;;14.95;44.54;98088.13;6101069;23;20159;-91
2023/04/12 18:33:43;;;;;;;15.80;6.97;;;;;;;14.87;44.83;98099.34;6101104;23;20159;-91
2023/04/12 18:36:09;;;;;;;22.77;9.83;;;;;;;14.91;44.92;98090.19;6126888;23;20238;-92
2023/04/12 18:38:43;;;;;;;10.90;5.30;;;;;;;14.83;44.80;98092.69;6121321;23;20147;-92
2023/04/12 18:41:14;;;;;;;9.27;4.07;;;;;;;14.84;44.93;98090.88;6126934;23;20160;-92
2023/04/12 18:43:40;;;;;;;11.13;3.83;;;;;;;14.77;44.63;98087.94;6126496;23;20503;-91
2023/04/12 18:46:15;;;;;;;4.53;2.40;;;;;;;14.69;44.96;98087.75;6101131;23;20232;-92
2023/04/12 18:48:41;;;;;;;7.37;2.40;;;;;;;14.76;44.44;98092.38;6101151;23;20609;-92
2023/04/12 18:51:06;;;;;;;4.63;2.13;;;;;;;14.64;44.81;98093.44;6126730;23;20150;-91
2023/04/12 18:53:32;;;;;;;5.00;2.27;;;;;;;14.45;45.51;98092.47;6100955;23;20160;-92
2023/04/12 18:56:12;;;;;;;6.03;2.33;;;;;;;14.26;46.04;98092.31;6126698;23;20178;-92
2023/04/12 18:58:38;;;;;;;7.63;2.13;;;;;;;14.22;45.86;98097.03;6100947;23;20149;-92
2023/04/12 19:01:05;;;;;;;4.77;2.00;;;;;;;14.13;46.13;98103.06;6100670;23;20157;-92
2023/04/12 19:03:34;;;;;;;5.27;1.73;;;;;;;14.25;45.73;98106.47;6100505;23;20152;-91
2023/04/12 19:06:00;;;;;;;3.10;1.60;;;;;;;14.20;45.99;98106.88;6125543;23;20573;-92
2023/04/12 19:08:26;;;;;;;5.17;2.10;;;;;;;14.01;46.09;98111.97;6100840;23;20215;-92
2023/04/12 19:10:51;;;;;;;5.80;2.00;;;;;;;14.02;46.13;98109.22;6125638;23;20160;-91
2023/04/12 19:13:17;;;;;;;6.63;2.57;;;;;;;13.99;46.41;98120.00;6100807;23;20160;-91
2023/04/12 19:15:45;;;;;;;4.87;2.73;;;;;;;13.95;46.45;98121.22;6124977;23;20176;-91
2023/04/12 19:18:11;;;;;;;6.33;2.83;;;;;;;13.92;46.21;98124.09;6123027;23;20175;-92
2023/04/12 19:20:38;;;;;;;5.73;2.17;;;;;;;13.75;47.10;98123.81;6125822;23;20575;-91
2023/04/12 19:23:09;;;;;;;10.37;2.60;;;;;;;13.69;47.23;98129.56;6126236;23;20476;-92
2023/04/12 19:25:35;;;;;;;5.73;1.90;;;;;;;13.54;47.50;98126.41;6125706;23;20136;-84
2023/04/12 19:28:03;;;;;;;11.77;3.20;;;;;;;13.52;47.62;98128.31;6125743;23;20868;-84
2023/04/12 19:30:31;;;;;;;8.90;2.70;;;;;;;13.48;47.97;98132.16;6100272;23;20190;-84
2023/04/12 19:33:00;;;;;;;7.60;2.07;;;;;;;13.35;48.17;98136.72;6076403;23;20224;-84
2023/04/12 19:35:31;;;;;;;6.63;2.10;;;;;;;13.14;48.82;98130.53;6103007;23;20191;-84
2023/04/12 19:37:58;;;;;;;11.97;2.93;;;;;;;13.20;48.54;98135.31;6100791;23;20685;-84
2023/04/12 19:40:25;;;;;;;21.67;5.43;;;;;;;13.15;49.04;98140.09;6100067;23;20168;-84
2023/04/12 19:42:51;;;;;;;24.70;8.03;;;;;;;13.10;48.59;98137.00;6099913;23;20579;-84
2023/04/12 19:45:18;;;;;;;18.33;7.20;;;;;;;13.10;48.25;98137.00;6125447;23;20162;-84
2023/04/12 19:47:44;;;;;;;21.50;7.90;;;;;;;13.09;48.49;98135.31;6124574;23;20155;-84
2023/04/12 19:50:13;;;;;;;10.53;4.00;;;;;;;13.03;48.16;98141.00;6124267;23;20159;-84
2023/04/12 19:52:47;;;;;;;15.90;3.93;;;;;;;12.98;48.22;98143.16;6125992;23;20159;-84
2023/04/12 19:55:14;;;;;;;8.17;4.03;;;;;;;12.93;48.61;98141.75;6100206;23;20257;-84
2023/04/12 19:57:41;;;;;;;7.27;2.63;;;;;;;12.79;47.87;98136.69;6100307;23;20267;-84
2023/04/12 20:00:18;;;;;;;8.90;3.57;;;;;;;12.71;47.69;98146.97;6100244;23;20489;-84
2023/04/12 20:02:47;;;;;;;7.50;2.30;;;;;;;12.54;48.66;98143.97;6099208;23;20543;-84
2023/04/12 20:05:16;;;;;;;5.70;2.20;;;;;;;12.39;48.96;98151.25;6125194;23;20486;-83
2023/04/12 20:07:44;;;;;;;5.60;2.00;;;;;;;12.49;49.07;98149.59;6100074;23;20529;-83
2023/04/12 20:10:12;;;;;;;5.27;2.20;;;;;;;12.49;48.84;98154.84;6126022;23;20570;-83
2023/04/12 20:12:38;;;;;;;7.67;2.37;;;;;;;12.49;49.23;98160.09;6100009;23;20237;-85
2023/04/12 20:15:10;;;;;;;5.80;2.53;;;;;;;12.58;48.65;98153.31;6125969;23;20179;-85
2023/04/12 20:17:42;;;;;;;6.53;2.87;;;;;;;12.40;49.40;98165.19;6101890;23;20154;-85
2023/04/12 20:20:11;;;;;;;4.90;2.00;;;;;;;12.29;49.32;98164.22;6102605;23;20240;-85
2023/04/12 20:22:51;;;;;;;4.37;2.27;;;;;;;12.14;50.59;98167.16;6102309;23;20548;-84
2023/04/12 20:25:21;;;;;;;5.63;2.57;;;;;;;12.14;49.29;98175.88;6102484;23;20146;-83
2023/04/12 20:27:50;;;;;;;6.27;2.33;;;;;;;12.29;48.79;98172.09;6102287;23;20159;-83
2023/04/12 20:30:19;;;;;;;5.43;1.97;;;;;;;12.44;47.79;98171.91;6102073;23;20164;-83
2023/04/12 20:32:46;;;;;;;6.70;1.70;;;;;;;12.40;47.30;98171.28;6127368;23;20154;-83
2023/04/12 20:35:13;;;;;;;19.27;6.10;;;;;;;12.50;46.45;98179.34;6101156;23;20177;-84
2023/04/12 20:37:40;;;;;;;4.90;1.90;;;;;;;12.49;46.05;98178.50;6127352;23;20170;-84
2023/04/12 20:40:11;;;;;;;8.00;2.47;;;;;;;12.68;45.37;98170.88;6124932;23;20627;-84
2023/04/12 20:42:36;;;;;;;3.67;1.37;;;;;;;12.75;45.15;98169.47;6101844;23;20232;-82
2023/04/12 20:45:04;;;;;;;4.33;1.10;;;;;;;12.83;44.91;98169.72;6101422;23;20610;-83
2023/04/12 20:47:32;;;;;;;3.10;1.20;;;;;;;12.85;44.70;98169.59;6127330;23;20165;-83
2023/04/12 20:50:06;;;;;;;3.77;1.00;;;;;;;12.78;44.94;98174.50;6127263;23;20154;-84